Terminal Aerodrome Forecast
Issued by NWS Chicago, IL

Home | Current Version | Previous Version | Graphics & Text | Print | Product List | Glossary On
Versions: 1 2 3 4 5 6 7 8 9 10 11 12 13 14 15 16 17 18 19 20 21 22 23 24 25 26
000
FTUS43 KLOT 250901 AAA
TAFRFD
TAF AMD
KRFD 250901Z 2509/2606 30015G22KT 2SM -SN BR SCT012 OVC018
      TEMPO 2509/2511 1 1/2SM -SN OVC012
     FM251100 31016G24KT 4SM BR OVC020
     FM252200 29014G21KT P6SM SCT040
     FM260100 28008KT P6SM SCT100=

USA.gov is the U.S. government's official web portal to all federal, state and local government web resources and services.